createdAt,value
2022-10-05T00:01:00.245Z,10.41
2022-10-05T00:03:33.639Z,10.43
2022-10-05T00:06:00.673Z,10.36
2022-10-05T00:08:32.203Z,10.37
2022-10-05T00:10:59.702Z,10.33
2022-10-05T00:13:29.759Z,10.32
2022-10-05T00:16:09.612Z,10.33
2022-10-05T00:18:37.092Z,10.30
2022-10-05T00:21:19.746Z,10.29
2022-10-05T00:23:47.145Z,10.09
2022-10-05T00:26:20.183Z,9.89
2022-10-05T00:28:47.919Z,9.84
2022-10-05T00:31:36.201Z,9.82
2022-10-05T00:34:03.460Z,9.81
2022-10-05T00:36:30.449Z,9.76
2022-10-05T00:38:57.388Z,9.78
2022-10-05T00:41:42.536Z,9.74
2022-10-05T00:44:28.052Z,9.69
2022-10-05T00:47:04.553Z,9.64
2022-10-05T00:49:57.508Z,9.64
2022-10-05T00:53:02.768Z,9.52
2022-10-05T00:55:38.464Z,9.51
2022-10-05T00:58:52.576Z,9.48
2022-10-05T01:01:30.188Z,9.45
2022-10-05T01:04:13.602Z,9.40
2022-10-05T01:06:55.535Z,9.36
2022-10-05T01:09:45.688Z,9.38
2022-10-05T01:12:37.830Z,9.42
2022-10-05T01:15:21.978Z,9.44
2022-10-05T01:17:58.349Z,9.45
2022-10-05T01:20:39.665Z,9.49
2022-10-05T01:23:32.588Z,9.52
2022-10-05T01:26:17.521Z,9.53
2022-10-05T01:28:52.850Z,9.47
2022-10-05T01:31:19.825Z,9.50
2022-10-05T01:33:56.552Z,9.51
2022-10-05T01:36:37.256Z,9.49
2022-10-05T01:39:43.151Z,9.48
2022-10-05T01:42:22.068Z,9.44
2022-10-05T01:44:55.433Z,9.43
2022-10-05T01:47:33.443Z,9.40
2022-10-05T01:50:07.103Z,9.39
2022-10-05T01:52:51.150Z,9.36
2022-10-05T01:56:03.784Z,9.31
2022-10-05T01:58:50.892Z,9.24
2022-10-05T02:01:20.412Z,9.15
2022-10-05T02:03:57.620Z,9.12
2022-10-05T02:06:28.094Z,9.06
2022-10-05T02:09:26.809Z,9.09
2022-10-05T02:12:07.074Z,9.08
2022-10-05T02:14:42.063Z,9.05
2022-10-05T02:17:17.628Z,9.03
2022-10-05T02:19:56.170Z,9.04
2022-10-05T02:22:37.394Z,9.02
2022-10-05T02:25:13.578Z,9.03
2022-10-05T02:28:13.114Z,9.04
2022-10-05T02:31:07.356Z,9.04
2022-10-05T02:33:36.036Z,9.07
2022-10-05T02:36:17.988Z,9.11
2022-10-05T02:38:52.879Z,9.06
2022-10-05T02:41:42.403Z,8.98
2022-10-05T02:44:22.087Z,9.00
2022-10-05T02:47:02.329Z,9.01
2022-10-05T02:49:44.044Z,9.01
2022-10-05T02:52:22.559Z,8.97
2022-10-05T02:55:26.390Z,8.98
2022-10-05T02:58:03.808Z,8.93
2022-10-05T03:00:37.016Z,8.94
2022-10-05T03:03:16.673Z,8.95
2022-10-05T03:06:03.831Z,9.01
2022-10-05T03:08:31.683Z,9.01
2022-10-05T03:11:18.474Z,9.05
2022-10-05T03:14:13.595Z,9.07
2022-10-05T03:17:08.568Z,9.10
2022-10-05T03:19:37.062Z,9.08
2022-10-05T03:22:29.509Z,9.11
2022-10-05T03:25:36.222Z,9.07
2022-10-05T03:28:22.800Z,9.04
2022-10-05T03:31:23.649Z,8.98
2022-10-05T03:34:00.859Z,8.85
2022-10-05T03:36:49.686Z,8.88
2022-10-05T03:39:38.714Z,8.85
2022-10-05T03:42:11.660Z,8.87
2022-10-05T03:44:45.056Z,8.88
2022-10-05T03:47:43.495Z,8.85
2022-10-05T03:50:34.271Z,8.82
2022-10-05T03:53:11.056Z,8.82
2022-10-05T03:55:48.106Z,8.80
2022-10-05T03:58:29.530Z,8.75
2022-10-05T04:01:03.828Z,8.67
2022-10-05T04:03:38.235Z,8.62
2022-10-05T04:06:15.682Z,8.58
2022-10-05T04:08:50.862Z,8.60
2022-10-05T04:11:26.452Z,8.61
2022-10-05T04:14:16.015Z,8.57
2022-10-05T04:16:49.806Z,8.56
2022-10-05T04:19:24.969Z,8.52
2022-10-05T04:22:06.401Z,8.50
2022-10-05T04:24:39.874Z,8.51
2022-10-05T04:27:36.294Z,8.48
2022-10-05T04:30:05.483Z,8.32
2022-10-05T04:32:45.903Z,8.09
2022-10-05T04:35:31.879Z,8.09
2022-10-05T04:38:12.044Z,8.11
2022-10-05T04:40:51.776Z,8.09
2022-10-05T04:43:32.582Z,8.13
2022-10-05T04:46:05.350Z,8.18
2022-10-05T04:48:50.313Z,8.17
2022-10-05T04:51:26.546Z,8.15
2022-10-05T04:53:59.129Z,8.16
2022-10-05T04:56:32.449Z,8.19
2022-10-05T04:59:20.161Z,8.24
2022-10-05T05:02:17.093Z,8.27
2022-10-05T05:04:57.735Z,8.31
2022-10-05T05:07:53.911Z,8.41
2022-10-05T05:10:39.772Z,8.48
2022-10-05T05:13:29.927Z,8.53
2022-10-05T05:16:05.093Z,8.60
2022-10-05T05:18:42.671Z,8.69
2022-10-05T05:21:31.175Z,8.81
2022-10-05T05:24:03.235Z,8.87
2022-10-05T05:26:55.775Z,8.95
2022-10-05T05:29:49.682Z,9.02
2022-10-05T05:32:45.991Z,9.13
2022-10-05T05:35:36.828Z,9.23
2022-10-05T05:38:37.679Z,9.31
2022-10-05T05:41:12.339Z,9.39
2022-10-05T05:43:53.653Z,9.50
2022-10-05T05:46:58.392Z,9.56
2022-10-05T05:49:32.280Z,9.62
2022-10-05T05:52:13.671Z,9.70
2022-10-05T05:55:29.688Z,9.84
2022-10-05T05:58:04.509Z,9.92
2022-10-05T06:01:20.209Z,10.05
2022-10-05T06:04:01.653Z,10.17
2022-10-05T06:06:34.982Z,10.25
2022-10-05T06:09:15.762Z,10.34
2022-10-05T06:12:21.512Z,10.45
2022-10-05T06:14:55.297Z,10.47
2022-10-05T06:17:32.927Z,10.52
2022-10-05T06:20:05.446Z,10.57
2022-10-05T06:22:42.538Z,10.68
2022-10-05T06:25:12.463Z,10.84
2022-10-05T06:28:08.436Z,11.00
2022-10-05T06:31:09.080Z,11.13
2022-10-05T06:33:50.764Z,11.30
2022-10-05T06:36:38.961Z,11.39
2022-10-05T06:39:43.701Z,11.51
2022-10-05T06:42:23.099Z,11.67
2022-10-05T06:45:22.386Z,11.78
2022-10-05T06:48:39.296Z,11.85
2022-10-05T06:51:52.908Z,11.90
2022-10-05T06:54:35.243Z,12.02
2022-10-05T06:57:21.728Z,12.17
2022-10-05T07:00:02.692Z,12.29
2022-10-05T07:02:53.813Z,12.44
2022-10-05T07:05:45.453Z,12.54
2022-10-05T07:08:24.938Z,12.62
2022-10-05T07:11:43.017Z,12.65
2022-10-05T07:14:36.185Z,12.67
2022-10-05T07:17:27.525Z,12.61
2022-10-05T07:20:09.225Z,12.63
2022-10-05T07:23:13.873Z,12.75
2022-10-05T07:25:53.373Z,12.95
2022-10-05T07:28:47.639Z,13.14
2022-10-05T07:31:40.776Z,13.41
2022-10-05T07:34:44.141Z,13.59
2022-10-05T07:37:38.647Z,13.76
2022-10-05T07:40:18.201Z,13.90
2022-10-05T07:43:22.455Z,13.97
2022-10-05T07:46:03.684Z,14.15
2022-10-05T07:49:00.228Z,14.27
2022-10-05T07:51:36.484Z,14.26
2022-10-05T07:54:57.157Z,14.28
2022-10-05T07:57:38.429Z,14.44
2022-10-05T08:00:20.388Z,14.66
2022-10-05T08:02:53.411Z,14.91
2022-10-05T08:05:24.355Z,15.13
2022-10-05T08:08:16.683Z,15.25
2022-10-05T08:10:59.767Z,15.33
2022-10-05T08:13:52.226Z,15.52
2022-10-05T08:16:19.979Z,15.72
2022-10-05T08:19:06.830Z,15.90
2022-10-05T08:21:45.123Z,15.94
2022-10-05T08:24:21.296Z,16.12
2022-10-05T08:27:04.658Z,16.21
2022-10-05T08:29:34.620Z,16.31
2022-10-05T08:32:12.716Z,16.40
2022-10-05T08:34:52.609Z,16.54
2022-10-05T08:37:22.587Z,16.64
2022-10-05T08:40:22.644Z,16.82
2022-10-05T08:43:01.583Z,17.04
2022-10-05T08:45:31.470Z,17.19
2022-10-05T08:48:36.177Z,17.31
2022-10-05T08:51:48.736Z,17.47
2022-10-05T08:54:34.817Z,17.65
2022-10-05T08:57:22.815Z,17.82
2022-10-05T09:00:20.736Z,17.98
2022-10-05T09:03:08.868Z,18.06
2022-10-05T09:06:06.306Z,18.18
2022-10-05T09:09:12.759Z,18.25
2022-10-05T09:11:46.198Z,18.33
2022-10-05T09:14:34.179Z,18.47
2022-10-05T09:17:39.928Z,18.56
2022-10-05T09:20:25.364Z,18.57
2022-10-05T09:23:05.212Z,18.60
2022-10-05T09:25:44.100Z,18.68
2022-10-05T09:28:23.047Z,18.64
2022-10-05T09:31:12.791Z,18.58
2022-10-05T09:34:00.612Z,18.43
2022-10-05T09:36:27.557Z,18.31
2022-10-05T09:38:57.378Z,18.46
2022-10-05T09:41:30.074Z,18.63
2022-10-05T09:44:11.987Z,18.73
2022-10-05T09:46:57.625Z,18.78
2022-10-05T09:49:55.404Z,18.86
2022-10-05T09:52:48.391Z,18.96
2022-10-05T09:55:39.343Z,18.84
2022-10-05T09:58:37.031Z,18.82
2022-10-05T10:01:33.710Z,18.58
2022-10-05T10:04:08.163Z,18.59
2022-10-05T10:07:25.914Z,18.65
2022-10-05T10:10:31.092Z,18.80
2022-10-05T10:13:31.175Z,18.83
2022-10-05T10:16:00.780Z,18.80
2022-10-05T10:18:27.777Z,18.90
2022-10-05T10:21:49.070Z,19.10
2022-10-05T10:24:44.226Z,19.15
2022-10-05T10:27:20.474Z,19.35
2022-10-05T10:30:14.015Z,19.56
2022-10-05T10:32:54.451Z,19.73
2022-10-05T10:35:37.340Z,19.95
2022-10-05T10:38:23.816Z,20.19
2022-10-05T10:41:14.477Z,20.39
2022-10-05T10:43:41.728Z,20.38
2022-10-05T10:46:29.965Z,20.53
2022-10-05T10:49:33.656Z,20.75
2022-10-05T10:52:31.316Z,20.92
2022-10-05T10:55:04.511Z,21.04
2022-10-05T10:57:52.798Z,21.18
2022-10-05T11:00:38.204Z,21.41
2022-10-05T11:03:24.110Z,21.54
2022-10-05T11:06:17.254Z,21.53
2022-10-05T11:09:21.322Z,21.60
2022-10-05T11:12:12.879Z,21.77
2022-10-05T11:14:48.636Z,22.04
2022-10-05T11:17:18.348Z,22.30
2022-10-05T11:20:04.364Z,22.39
2022-10-05T11:22:54.632Z,22.62
2022-10-05T11:25:58.877Z,22.95
2022-10-05T11:29:01.141Z,23.27
2022-10-05T11:31:50.414Z,23.50
2022-10-05T11:34:27.312Z,23.72
2022-10-05T11:37:24.868Z,23.97
2022-10-05T11:40:10.178Z,24.07
2022-10-05T11:43:00.371Z,23.74
2022-10-05T11:45:46.610Z,23.34
2022-10-05T11:49:15.469Z,23.22
2022-10-05T11:51:47.692Z,23.22
2022-10-05T11:54:17.707Z,23.18
2022-10-05T11:56:54.750Z,23.08
2022-10-05T11:59:39.628Z,23.46
2022-10-05T12:02:48.278Z,23.71
2022-10-05T12:05:21.439Z,24.17
2022-10-05T12:08:30.064Z,24.44
2022-10-05T12:11:33.987Z,24.55
2022-10-05T12:14:10.638Z,24.81
2022-10-05T12:16:50.982Z,24.99
2022-10-05T12:19:22.109Z,25.33
2022-10-05T12:22:10.058Z,25.65
2022-10-05T12:24:36.977Z,26.02
2022-10-05T12:27:32.374Z,26.45
2022-10-05T12:30:05.932Z,26.83
2022-10-05T12:32:41.632Z,27.27
2022-10-05T12:35:43.964Z,27.47
2022-10-05T12:38:25.039Z,27.79
2022-10-05T12:41:11.135Z,28.03
2022-10-05T12:43:53.929Z,27.99
2022-10-05T12:46:55.557Z,28.29
2022-10-05T12:49:50.004Z,28.50
2022-10-05T12:52:37.659Z,28.64
2022-10-05T12:55:22.042Z,28.27
2022-10-05T12:58:05.815Z,27.98
2022-10-05T13:00:38.047Z,28.37
2022-10-05T13:03:44.944Z,28.72
2022-10-05T13:06:55.767Z,28.90
2022-10-05T13:09:40.345Z,29.01
2022-10-05T13:12:27.054Z,29.13
2022-10-05T13:15:08.776Z,29.24
2022-10-05T13:17:42.675Z,29.26
2022-10-05T13:20:29.898Z,29.26
2022-10-05T13:23:34.981Z,29.26
2022-10-05T13:26:07.896Z,29.48
2022-10-05T13:28:58.630Z,29.45
2022-10-05T13:31:33.126Z,29.45
2022-10-05T13:34:18.022Z,28.86
2022-10-05T13:37:23.323Z,29.26
2022-10-05T13:40:01.179Z,28.85
2022-10-05T13:42:40.326Z,28.73
2022-10-05T13:45:20.307Z,28.89
2022-10-05T13:47:58.814Z,29.14
2022-10-05T13:50:33.623Z,29.34
2022-10-05T13:53:24.800Z,28.98
2022-10-05T13:56:06.927Z,28.77
2022-10-05T13:58:45.370Z,28.77
2022-10-05T14:01:43.619Z,28.93
2022-10-05T14:04:21.232Z,29.13
2022-10-05T14:06:49.623Z,29.50
2022-10-05T14:09:30.396Z,29.62
2022-10-05T14:12:03.183Z,29.62
2022-10-05T14:14:42.310Z,29.70
2022-10-05T14:17:35.756Z,29.34
2022-10-05T14:20:26.035Z,29.32
2022-10-05T14:23:01.029Z,29.22
2022-10-05T14:25:30.215Z,28.74
2022-10-05T14:28:12.414Z,28.14
2022-10-05T14:30:40.984Z,28.05
2022-10-05T14:33:17.332Z,28.03
2022-10-05T14:35:49.180Z,28.10
2022-10-05T14:38:30.015Z,28.21
2022-10-05T14:41:17.721Z,28.32
2022-10-05T14:44:13.442Z,28.47
2022-10-05T14:47:12.048Z,28.50
2022-10-05T14:50:16.228Z,28.52
2022-10-05T14:53:17.415Z,28.53
2022-10-05T14:56:09.172Z,28.58
2022-10-05T14:58:55.974Z,28.61
2022-10-05T15:01:31.832Z,28.63
2022-10-05T15:04:21.428Z,28.64
2022-10-05T15:07:06.344Z,28.49
2022-10-05T15:09:52.073Z,28.36
2022-10-05T15:12:29.552Z,28.14
2022-10-05T15:15:05.165Z,27.97
2022-10-05T15:17:52.749Z,27.88
2022-10-05T15:20:29.471Z,27.78
2022-10-05T15:23:11.484Z,27.72
2022-10-05T15:26:06.298Z,27.69
2022-10-05T15:28:54.724Z,27.66
2022-10-05T15:31:25.932Z,27.65
2022-10-05T15:34:08.179Z,27.66
2022-10-05T15:36:52.613Z,27.67
2022-10-05T15:39:36.428Z,27.70
2022-10-05T15:42:17.424Z,27.68
2022-10-05T15:44:52.333Z,27.46
2022-10-05T15:47:54.814Z,27.07
2022-10-05T15:50:35.672Z,26.52
2022-10-05T15:53:17.835Z,25.86
2022-10-05T15:55:56.634Z,25.18
2022-10-05T15:58:31.498Z,24.62
2022-10-05T16:01:11.363Z,24.03
2022-10-05T16:03:49.369Z,23.16
2022-10-05T16:06:56.728Z,22.60
2022-10-05T16:09:34.575Z,21.80
2022-10-05T16:12:21.534Z,21.37
2022-10-05T16:15:00.694Z,21.04
2022-10-05T16:17:47.475Z,20.79
2022-10-05T16:20:20.858Z,20.44
2022-10-05T16:23:29.998Z,20.16
2022-10-05T16:26:20.596Z,19.70
2022-10-05T16:28:47.702Z,19.26
2022-10-05T16:31:31.267Z,19.12
2022-10-05T16:34:10.386Z,18.82
2022-10-05T16:37:28.462Z,18.55
2022-10-05T16:40:21.537Z,18.24
2022-10-05T16:43:28.382Z,17.93
2022-10-05T16:46:15.936Z,17.71
2022-10-05T16:48:48.903Z,17.40
2022-10-05T16:51:23.426Z,17.26
2022-10-05T16:54:02.240Z,17.06
2022-10-05T16:56:39.462Z,16.90
2022-10-05T16:59:24.676Z,16.77
2022-10-05T17:02:15.272Z,16.62
2022-10-05T17:05:01.821Z,16.47
2022-10-05T17:07:49.806Z,16.40
2022-10-05T17:10:38.010Z,16.29
2022-10-05T17:13:37.615Z,16.21
2022-10-05T17:16:29.442Z,16.09
2022-10-05T17:19:21.347Z,16.03
2022-10-05T17:22:07.933Z,15.94
2022-10-05T17:24:41.833Z,15.85
2022-10-05T17:27:26.123Z,15.81
2022-10-05T17:29:55.405Z,15.71
2022-10-05T17:32:22.353Z,15.66
2022-10-05T17:35:01.435Z,15.64
2022-10-05T17:37:28.425Z,15.57
2022-10-05T17:39:57.634Z,15.51
2022-10-05T17:42:30.247Z,15.43
2022-10-05T17:45:20.890Z,15.42
2022-10-05T17:48:04.261Z,15.39
2022-10-05T17:51:09.781Z,15.34
2022-10-05T17:54:04.164Z,15.31
2022-10-05T17:56:53.424Z,15.20
2022-10-05T17:59:46.331Z,15.07
2022-10-05T18:02:23.034Z,14.98
2022-10-05T18:05:14.623Z,14.86
2022-10-05T18:07:44.173Z,14.77
2022-10-05T18:10:16.997Z,14.78
2022-10-05T18:13:11.361Z,14.71
2022-10-05T18:15:45.326Z,14.62
2022-10-05T18:18:44.031Z,14.55
2022-10-05T18:21:13.866Z,14.46
2022-10-05T18:24:02.895Z,14.45
2022-10-05T18:26:36.956Z,14.39
2022-10-05T18:29:39.023Z,14.38
2022-10-05T18:32:23.570Z,14.39
2022-10-05T18:35:01.976Z,14.36
2022-10-05T18:37:50.664Z,14.33
2022-10-05T18:40:26.682Z,14.24
2022-10-05T18:43:06.576Z,14.14
2022-10-05T18:45:44.240Z,14.08
2022-10-05T18:48:30.051Z,14.04
2022-10-05T18:51:27.405Z,13.94
2022-10-05T18:53:54.591Z,13.88
2022-10-05T18:56:30.283Z,13.86
2022-10-05T18:59:27.712Z,13.78
2022-10-05T19:02:20.329Z,13.70
2022-10-05T19:05:29.305Z,13.67
2022-10-05T19:08:20.726Z,13.63
2022-10-05T19:10:55.662Z,13.60
2022-10-05T19:13:25.525Z,13.54
2022-10-05T19:16:06.888Z,13.43
2022-10-05T19:19:01.331Z,13.36
2022-10-05T19:21:39.594Z,13.27
2022-10-05T19:24:25.047Z,13.21
2022-10-05T19:27:17.178Z,13.38
2022-10-05T19:29:56.218Z,13.76
2022-10-05T19:32:30.544Z,13.74
2022-10-05T19:35:13.198Z,13.64
2022-10-05T19:38:00.813Z,13.54
2022-10-05T19:40:36.354Z,13.43
2022-10-05T19:43:19.133Z,13.39
2022-10-05T19:46:19.018Z,13.28
2022-10-05T19:48:53.464Z,13.17
2022-10-05T19:51:36.124Z,13.07
2022-10-05T19:54:16.466Z,12.96
2022-10-05T19:56:50.218Z,12.81
2022-10-05T19:59:24.689Z,12.77
2022-10-05T20:01:57.355Z,12.76
2022-10-05T20:04:41.018Z,12.73
2022-10-05T20:07:17.263Z,12.69
2022-10-05T20:09:59.520Z,12.64
2022-10-05T20:12:54.698Z,12.56
2022-10-05T20:15:52.121Z,12.53
2022-10-05T20:18:58.708Z,12.52
2022-10-05T20:21:45.977Z,12.48
2022-10-05T20:24:20.461Z,12.42
2022-10-05T20:27:15.156Z,12.41
2022-10-05T20:29:44.858Z,12.40
2022-10-05T20:32:18.099Z,12.36
2022-10-05T20:34:47.215Z,12.29
2022-10-05T20:37:16.684Z,12.22
2022-10-05T20:39:43.823Z,12.19
2022-10-05T20:42:11.254Z,12.14
2022-10-05T20:44:38.603Z,12.08
2022-10-05T20:47:09.648Z,12.00
2022-10-05T20:49:38.533Z,11.98
2022-10-05T20:52:06.750Z,11.95
2022-10-05T20:54:33.848Z,11.98
2022-10-05T20:57:00.833Z,12.00
2022-10-05T20:59:27.831Z,11.96
2022-10-05T21:01:54.984Z,11.93
2022-10-05T21:04:24.580Z,11.92
2022-10-05T21:06:52.961Z,11.88
2022-10-05T21:09:21.618Z,11.89
2022-10-05T21:11:50.353Z,11.88
2022-10-05T21:14:17.425Z,11.84
2022-10-05T21:16:45.985Z,11.81
2022-10-05T21:19:14.454Z,11.79
2022-10-05T21:21:43.296Z,11.79
2022-10-05T21:24:13.925Z,11.80
2022-10-05T21:26:41.839Z,11.78
2022-10-05T21:29:12.575Z,11.75
2022-10-05T21:31:40.512Z,11.75
2022-10-05T21:34:07.906Z,11.71
2022-10-05T21:36:35.247Z,11.68
2022-10-05T21:39:02.267Z,11.65
2022-10-05T21:41:29.350Z,11.58
2022-10-05T21:43:56.332Z,11.52
2022-10-05T21:46:27.607Z,11.45
2022-10-05T21:48:55.955Z,11.43
2022-10-05T21:51:26.389Z,11.46
2022-10-05T21:54:03.653Z,11.40
2022-10-05T21:56:37.097Z,11.47
2022-10-05T21:59:09.284Z,11.46
2022-10-05T22:01:37.155Z,11.42
2022-10-05T22:04:06.874Z,11.46
2022-10-05T22:06:36.645Z,11.43
2022-10-05T22:09:06.015Z,11.40
2022-10-05T22:11:34.269Z,11.44
2022-10-05T22:14:04.257Z,11.38
2022-10-05T22:16:34.941Z,11.32
2022-10-05T22:19:05.286Z,11.21
2022-10-05T22:21:34.427Z,11.16
2022-10-05T22:24:02.804Z,11.16
2022-10-05T22:26:30.124Z,11.15
2022-10-05T22:28:57.224Z,11.09
2022-10-05T22:31:24.516Z,11.08
2022-10-05T22:33:51.575Z,11.08
2022-10-05T22:36:19.570Z,11.11
2022-10-05T22:38:47.725Z,11.10
2022-10-05T22:41:18.448Z,11.07
2022-10-05T22:43:50.188Z,11.00
2022-10-05T22:46:18.096Z,10.94
2022-10-05T22:48:45.074Z,10.94
2022-10-05T22:51:12.136Z,11.02
2022-10-05T22:53:39.175Z,11.05
2022-10-05T22:56:09.048Z,11.02
2022-10-05T22:58:36.704Z,11.02
2022-10-05T23:01:05.929Z,11.01
2022-10-05T23:03:33.545Z,10.98
2022-10-05T23:06:03.679Z,10.89
2022-10-05T23:08:32.259Z,10.81
2022-10-05T23:11:10.630Z,10.76
2022-10-05T23:13:38.107Z,10.73
2022-10-05T23:18:50.631Z,10.70
2022-10-05T23:21:18.889Z,10.73
2022-10-05T23:23:49.059Z,10.73
2022-10-05T23:26:16.996Z,10.69
2022-10-05T23:28:48.058Z,10.74
2022-10-05T23:31:17.481Z,10.72
2022-10-05T23:33:44.715Z,10.76
2022-10-05T23:36:21.970Z,10.76
2022-10-05T23:38:49.428Z,10.71
2022-10-05T23:41:17.205Z,10.69
2022-10-05T23:43:44.201Z,10.66
2022-10-05T23:46:11.993Z,10.64
2022-10-05T23:48:39.287Z,10.61
2022-10-05T23:51:08.185Z,10.55
2022-10-05T23:53:35.552Z,10.44
2022-10-05T23:56:02.721Z,10.37
2022-10-05T23:58:30.036Z,10.29
